sensor_id;sensor_type;location;lat;lon;timestamp;P1;durP1;ratioP1;P2;durP2;ratioP2
28547;SDS011;68292;49.600;8.746;2023-03-12T00:00:05;12.77;;;7.60;;
28547;SDS011;68292;49.600;8.746;2023-03-12T00:02:38;10.47;;;7.70;;
28547;SDS011;68292;49.600;8.746;2023-03-12T00:05:07;10.93;;;7.50;;
28547;SDS011;68292;49.600;8.746;2023-03-12T00:07:37;12.90;;;8.27;;
28547;SDS011;68292;49.600;8.746;2023-03-12T00:10:06;14.53;;;8.43;;
28547;SDS011;68292;49.600;8.746;2023-03-12T00:12:36;11.10;;;7.40;;
28547;SDS011;68292;49.600;8.746;2023-03-12T00:15:05;11.73;;;7.20;;
28547;SDS011;68292;49.600;8.746;2023-03-12T00:17:36;10.60;;;7.00;;
28547;SDS011;68292;49.600;8.746;2023-03-12T00:20:06;11.13;;;7.10;;
28547;SDS011;68292;49.600;8.746;2023-03-12T00:22:37;10.70;;;6.27;;
28547;SDS011;68292;49.600;8.746;2023-03-12T00:25:09;10.57;;;7.03;;
28547;SDS011;68292;49.600;8.746;2023-03-12T00:27:40;11.57;;;7.80;;
28547;SDS011;68292;49.600;8.746;2023-03-12T00:30:10;9.17;;;6.97;;
28547;SDS011;68292;49.600;8.746;2023-03-12T00:32:43;7.73;;;6.23;;
28547;SDS011;68292;49.600;8.746;2023-03-12T00:35:12;11.60;;;6.27;;
28547;SDS011;68292;49.600;8.746;2023-03-12T00:37:41;8.53;;;6.00;;
28547;SDS011;68292;49.600;8.746;2023-03-12T00:40:10;6.77;;;5.60;;
28547;SDS011;68292;49.600;8.746;2023-03-12T00:42:40;8.13;;;6.00;;
28547;SDS011;68292;49.600;8.746;2023-03-12T00:45:09;12.10;;;7.03;;
28547;SDS011;68292;49.600;8.746;2023-03-12T00:47:38;10.33;;;6.87;;
28547;SDS011;68292;49.600;8.746;2023-03-12T00:50:09;9.40;;;6.53;;
28547;SDS011;68292;49.600;8.746;2023-03-12T00:52:38;8.53;;;6.27;;
28547;SDS011;68292;49.600;8.746;2023-03-12T00:55:07;12.07;;;7.30;;
28547;SDS011;68292;49.600;8.746;2023-03-12T00:57:36;13.17;;;7.13;;
28547;SDS011;68292;49.600;8.746;2023-03-12T01:00:05;10.93;;;6.97;;
28547;SDS011;68292;49.600;8.746;2023-03-12T01:02:36;8.70;;;6.90;;
28547;SDS011;68292;49.600;8.746;2023-03-12T01:05:06;12.33;;;6.83;;
28547;SDS011;68292;49.600;8.746;2023-03-12T01:07:39;9.63;;;6.47;;
28547;SDS011;68292;49.600;8.746;2023-03-12T01:10:09;10.20;;;6.30;;
28547;SDS011;68292;49.600;8.746;2023-03-12T01:12:43;11.30;;;7.03;;
28547;SDS011;68292;49.600;8.746;2023-03-12T01:15:12;9.43;;;6.90;;
28547;SDS011;68292;49.600;8.746;2023-03-12T01:17:43;8.70;;;6.50;;
28547;SDS011;68292;49.600;8.746;2023-03-12T01:20:13;8.93;;;6.07;;
28547;SDS011;68292;49.600;8.746;2023-03-12T01:22:42;7.53;;;6.50;;
28547;SDS011;68292;49.600;8.746;2023-03-12T01:25:11;14.67;;;8.30;;
28547;SDS011;68292;49.600;8.746;2023-03-12T01:27:40;11.67;;;8.43;;
28547;SDS011;68292;49.600;8.746;2023-03-12T01:30:09;12.20;;;8.43;;
28547;SDS011;68292;49.600;8.746;2023-03-12T01:32:39;11.47;;;8.40;;
28547;SDS011;68292;49.600;8.746;2023-03-12T01:35:08;13.30;;;8.77;;
28547;SDS011;68292;49.600;8.746;2023-03-12T01:37:38;10.33;;;8.20;;
28547;SDS011;68292;49.600;8.746;2023-03-12T01:40:10;11.27;;;7.93;;
28547;SDS011;68292;49.600;8.746;2023-03-12T01:42:42;11.37;;;8.07;;
28547;SDS011;68292;49.600;8.746;2023-03-12T01:48:42;10.23;;;8.07;;
28547;SDS011;68292;49.600;8.746;2023-03-12T01:51:15;10.40;;;7.67;;
28547;SDS011;68292;49.600;8.746;2023-03-12T01:53:48;10.13;;;7.13;;
28547;SDS011;68292;49.600;8.746;2023-03-12T01:56:20;9.47;;;7.23;;
28547;SDS011;68292;49.600;8.746;2023-03-12T01:58:54;7.97;;;7.17;;
28547;SDS011;68292;49.600;8.746;2023-03-12T02:01:30;8.50;;;7.17;;
28547;SDS011;68292;49.600;8.746;2023-03-12T02:04:00;10.57;;;7.27;;
28547;SDS011;68292;49.600;8.746;2023-03-12T02:06:32;9.63;;;7.20;;
28547;SDS011;68292;49.600;8.746;2023-03-12T02:09:06;10.17;;;6.73;;
28547;SDS011;68292;49.600;8.746;2023-03-12T02:11:35;9.07;;;7.07;;
28547;SDS011;68292;49.600;8.746;2023-03-12T02:14:04;12.80;;;7.73;;
28547;SDS011;68292;49.600;8.746;2023-03-12T02:16:33;9.83;;;7.13;;
28547;SDS011;68292;49.600;8.746;2023-03-12T02:19:02;9.10;;;7.27;;
28547;SDS011;68292;49.600;8.746;2023-03-12T02:21:39;9.87;;;7.87;;
28547;SDS011;68292;49.600;8.746;2023-03-12T02:24:11;7.93;;;7.03;;
28547;SDS011;68292;49.600;8.746;2023-03-12T02:27:09;9.43;;;8.27;;
28547;SDS011;68292;49.600;8.746;2023-03-12T02:29:40;9.73;;;7.10;;
28547;SDS011;68292;49.600;8.746;2023-03-12T02:32:12;9.30;;;6.50;;
28547;SDS011;68292;49.600;8.746;2023-03-12T02:34:49;8.50;;;6.90;;
28547;SDS011;68292;49.600;8.746;2023-03-12T02:37:18;10.60;;;6.67;;
28547;SDS011;68292;49.600;8.746;2023-03-12T02:39:49;12.63;;;6.37;;
28547;SDS011;68292;49.600;8.746;2023-03-12T02:42:24;9.53;;;6.57;;
28547;SDS011;68292;49.600;8.746;2023-03-12T02:44:53;9.00;;;6.40;;
28547;SDS011;68292;49.600;8.746;2023-03-12T02:47:22;11.47;;;7.13;;
28547;SDS011;68292;49.600;8.746;2023-03-12T02:49:52;9.03;;;6.87;;
28547;SDS011;68292;49.600;8.746;2023-03-12T02:52:21;10.37;;;6.20;;
28547;SDS011;68292;49.600;8.746;2023-03-12T02:54:50;7.73;;;6.23;;
28547;SDS011;68292;49.600;8.746;2023-03-12T02:57:18;8.63;;;5.97;;
28547;SDS011;68292;49.600;8.746;2023-03-12T02:59:48;8.73;;;6.33;;
28547;SDS011;68292;49.600;8.746;2023-03-12T03:02:17;10.03;;;7.00;;
28547;SDS011;68292;49.600;8.746;2023-03-12T03:04:46;9.17;;;6.57;;
28547;SDS011;68292;49.600;8.746;2023-03-12T03:07:15;9.40;;;6.87;;
28547;SDS011;68292;49.600;8.746;2023-03-12T03:09:43;8.77;;;6.50;;
28547;SDS011;68292;49.600;8.746;2023-03-12T03:12:12;9.10;;;6.53;;
28547;SDS011;68292;49.600;8.746;2023-03-12T03:14:41;8.10;;;6.40;;
28547;SDS011;68292;49.600;8.746;2023-03-12T03:17:11;9.73;;;6.57;;
28547;SDS011;68292;49.600;8.746;2023-03-12T03:19:40;7.90;;;6.23;;
28547;SDS011;68292;49.600;8.746;2023-03-12T03:22:09;10.77;;;6.63;;
28547;SDS011;68292;49.600;8.746;2023-03-12T03:24:37;10.73;;;6.67;;
28547;SDS011;68292;49.600;8.746;2023-03-12T03:27:06;7.80;;;6.40;;
28547;SDS011;68292;49.600;8.746;2023-03-12T03:29:35;7.87;;;6.43;;
28547;SDS011;68292;49.600;8.746;2023-03-12T03:32:04;7.40;;;6.17;;
28547;SDS011;68292;49.600;8.746;2023-03-12T03:34:35;11.67;;;6.13;;
28547;SDS011;68292;49.600;8.746;2023-03-12T03:37:04;8.17;;;6.20;;
28547;SDS011;68292;49.600;8.746;2023-03-12T03:39:34;8.53;;;6.50;;
28547;SDS011;68292;49.600;8.746;2023-03-12T03:42:03;11.13;;;7.27;;
28547;SDS011;68292;49.600;8.746;2023-03-12T03:44:32;11.23;;;6.60;;
28547;SDS011;68292;49.600;8.746;2023-03-12T03:47:01;8.17;;;6.33;;
28547;SDS011;68292;49.600;8.746;2023-03-12T03:49:30;9.07;;;5.80;;
28547;SDS011;68292;49.600;8.746;2023-03-12T03:52:00;8.23;;;6.23;;
28547;SDS011;68292;49.600;8.746;2023-03-12T03:54:33;10.17;;;5.97;;
28547;SDS011;68292;49.600;8.746;2023-03-12T03:57:04;9.83;;;6.60;;
28547;SDS011;68292;49.600;8.746;2023-03-12T03:59:33;8.47;;;5.50;;
28547;SDS011;68292;49.600;8.746;2023-03-12T04:02:01;8.70;;;6.17;;
28547;SDS011;68292;49.600;8.746;2023-03-12T04:04:33;9.13;;;6.97;;
28547;SDS011;68292;49.600;8.746;2023-03-12T04:07:04;8.77;;;6.40;;
28547;SDS011;68292;49.600;8.746;2023-03-12T04:09:33;8.10;;;5.60;;
28547;SDS011;68292;49.600;8.746;2023-03-12T04:12:01;7.10;;;6.37;;
28547;SDS011;68292;49.600;8.746;2023-03-12T04:14:34;6.97;;;6.27;;
28547;SDS011;68292;49.600;8.746;2023-03-12T04:17:08;8.77;;;6.23;;
28547;SDS011;68292;49.600;8.746;2023-03-12T04:19:37;6.97;;;6.30;;
28547;SDS011;68292;49.600;8.746;2023-03-12T04:22:07;9.73;;;6.57;;
28547;SDS011;68292;49.600;8.746;2023-03-12T04:24:35;7.20;;;5.43;;
28547;SDS011;68292;49.600;8.746;2023-03-12T04:27:05;7.77;;;6.30;;
28547;SDS011;68292;49.600;8.746;2023-03-12T04:29:34;8.97;;;6.07;;
28547;SDS011;68292;49.600;8.746;2023-03-12T04:32:05;8.57;;;7.07;;
28547;SDS011;68292;49.600;8.746;2023-03-12T04:34:35;10.33;;;6.87;;
28547;SDS011;68292;49.600;8.746;2023-03-12T04:37:03;8.97;;;6.67;;
28547;SDS011;68292;49.600;8.746;2023-03-12T04:39:34;10.80;;;6.60;;
28547;SDS011;68292;49.600;8.746;2023-03-12T04:42:02;10.03;;;7.27;;
28547;SDS011;68292;49.600;8.746;2023-03-12T04:44:32;7.43;;;6.20;;
28547;SDS011;68292;49.600;8.746;2023-03-12T04:47:01;7.83;;;6.53;;
28547;SDS011;68292;49.600;8.746;2023-03-12T04:49:32;8.60;;;6.73;;
28547;SDS011;68292;49.600;8.746;2023-03-12T04:52:00;8.73;;;6.23;;
28547;SDS011;68292;49.600;8.746;2023-03-12T04:54:29;9.13;;;6.10;;
28547;SDS011;68292;49.600;8.746;2023-03-12T04:57:01;8.23;;;6.43;;
28547;SDS011;68292;49.600;8.746;2023-03-12T04:59:29;11.10;;;6.70;;
28547;SDS011;68292;49.600;8.746;2023-03-12T05:01:58;8.43;;;6.17;;
28547;SDS011;68292;49.600;8.746;2023-03-12T05:04:28;10.67;;;6.13;;
28547;SDS011;68292;49.600;8.746;2023-03-12T05:06:59;6.70;;;5.87;;
28547;SDS011;68292;49.600;8.746;2023-03-12T05:09:28;9.53;;;6.90;;
28547;SDS011;68292;49.600;8.746;2023-03-12T05:11:57;10.87;;;6.73;;
28547;SDS011;68292;49.600;8.746;2023-03-12T05:14:27;8.83;;;6.37;;
28547;SDS011;68292;49.600;8.746;2023-03-12T05:16:56;8.00;;;5.50;;
28547;SDS011;68292;49.600;8.746;2023-03-12T05:19:25;8.03;;;6.67;;
28547;SDS011;68292;49.600;8.746;2023-03-12T05:21:53;11.13;;;7.13;;
28547;SDS011;68292;49.600;8.746;2023-03-12T05:24:22;6.83;;;5.53;;
28547;SDS011;68292;49.600;8.746;2023-03-12T05:26:51;9.23;;;6.83;;
28547;SDS011;68292;49.600;8.746;2023-03-12T05:29:22;7.93;;;5.90;;
28547;SDS011;68292;49.600;8.746;2023-03-12T05:31:54;10.17;;;6.40;;
28547;SDS011;68292;49.600;8.746;2023-03-12T05:34:23;8.43;;;6.70;;
28547;SDS011;68292;49.600;8.746;2023-03-12T05:36:51;11.07;;;6.80;;
28547;SDS011;68292;49.600;8.746;2023-03-12T05:39:23;7.17;;;6.10;;
28547;SDS011;68292;49.600;8.746;2023-03-12T05:41:55;8.63;;;6.80;;
28547;SDS011;68292;49.600;8.746;2023-03-12T05:44:24;7.37;;;6.40;;
28547;SDS011;68292;49.600;8.746;2023-03-12T05:46:56;8.03;;;6.03;;
28547;SDS011;68292;49.600;8.746;2023-03-12T05:49:26;7.23;;;5.77;;
28547;SDS011;68292;49.600;8.746;2023-03-12T05:51:56;6.27;;;5.63;;
28547;SDS011;68292;49.600;8.746;2023-03-12T05:54:25;8.27;;;6.27;;
28547;SDS011;68292;49.600;8.746;2023-03-12T05:56:55;6.93;;;5.93;;
28547;SDS011;68292;49.600;8.746;2023-03-12T05:59:25;6.57;;;5.30;;
28547;SDS011;68292;49.600;8.746;2023-03-12T06:01:56;8.17;;;6.10;;
28547;SDS011;68292;49.600;8.746;2023-03-12T06:04:25;6.90;;;6.20;;
28547;SDS011;68292;49.600;8.746;2023-03-12T06:06:54;6.60;;;5.30;;
28547;SDS011;68292;49.600;8.746;2023-03-12T06:09:23;7.60;;;6.40;;
28547;SDS011;68292;49.600;8.746;2023-03-12T06:11:52;8.60;;;6.03;;
28547;SDS011;68292;49.600;8.746;2023-03-12T06:14:21;6.90;;;5.83;;
28547;SDS011;68292;49.600;8.746;2023-03-12T06:16:50;6.70;;;5.57;;
28547;SDS011;68292;49.600;8.746;2023-03-12T06:19:20;7.33;;;6.10;;
28547;SDS011;68292;49.600;8.746;2023-03-12T06:21:49;5.73;;;5.13;;
28547;SDS011;68292;49.600;8.746;2023-03-12T06:24:18;6.17;;;5.30;;
28547;SDS011;68292;49.600;8.746;2023-03-12T06:26:58;6.80;;;5.30;;
28547;SDS011;68292;49.600;8.746;2023-03-12T06:29:26;6.13;;;5.00;;
28547;SDS011;68292;49.600;8.746;2023-03-12T06:31:55;6.43;;;5.53;;
28547;SDS011;68292;49.600;8.746;2023-03-12T06:34:25;9.00;;;5.77;;
28547;SDS011;68292;49.600;8.746;2023-03-12T06:36:54;5.90;;;5.30;;
28547;SDS011;68292;49.600;8.746;2023-03-12T06:39:22;5.60;;;5.10;;
28547;SDS011;68292;49.600;8.746;2023-03-12T06:41:51;5.90;;;5.30;;
28547;SDS011;68292;49.600;8.746;2023-03-12T06:44:20;6.30;;;5.50;;
28547;SDS011;68292;49.600;8.746;2023-03-12T06:46:49;6.97;;;5.10;;
28547;SDS011;68292;49.600;8.746;2023-03-12T06:49:17;5.40;;;4.90;;
28547;SDS011;68292;49.600;8.746;2023-03-12T06:51:47;6.47;;;5.13;;
28547;SDS011;68292;49.600;8.746;2023-03-12T06:54:16;4.90;;;4.20;;
28547;SDS011;68292;49.600;8.746;2023-03-12T06:56:45;6.30;;;4.33;;
28547;SDS011;68292;49.600;8.746;2023-03-12T06:59:14;4.90;;;4.20;;
28547;SDS011;68292;49.600;8.746;2023-03-12T07:01:43;4.23;;;3.50;;
28547;SDS011;68292;49.600;8.746;2023-03-12T07:04:12;6.50;;;3.80;;
28547;SDS011;68292;49.600;8.746;2023-03-12T07:06:41;6.57;;;3.63;;
28547;SDS011;68292;49.600;8.746;2023-03-12T07:09:11;4.27;;;3.53;;
28547;SDS011;68292;49.600;8.746;2023-03-12T07:11:39;4.27;;;3.30;;
28547;SDS011;68292;49.600;8.746;2023-03-12T07:14:08;4.47;;;3.67;;
28547;SDS011;68292;49.600;8.746;2023-03-12T07:16:37;3.97;;;3.57;;
28547;SDS011;68292;49.600;8.746;2023-03-12T07:19:05;6.00;;;4.33;;
28547;SDS011;68292;49.600;8.746;2023-03-12T07:21:34;7.60;;;5.27;;
28547;SDS011;68292;49.600;8.746;2023-03-12T07:24:03;7.40;;;5.40;;
28547;SDS011;68292;49.600;8.746;2023-03-12T07:26:35;5.53;;;5.03;;
28547;SDS011;68292;49.600;8.746;2023-03-12T07:29:03;7.07;;;5.70;;
28547;SDS011;68292;49.600;8.746;2023-03-12T07:31:32;6.50;;;5.57;;
28547;SDS011;68292;49.600;8.746;2023-03-12T07:34:01;5.63;;;4.40;;
28547;SDS011;68292;49.600;8.746;2023-03-12T07:36:31;6.77;;;4.53;;
28547;SDS011;68292;49.600;8.746;2023-03-12T07:39:00;8.27;;;5.07;;
28547;SDS011;68292;49.600;8.746;2023-03-12T07:41:30;6.70;;;5.30;;
28547;SDS011;68292;49.600;8.746;2023-03-12T07:44:00;7.23;;;5.23;;
28547;SDS011;68292;49.600;8.746;2023-03-12T07:46:28;5.30;;;4.00;;
28547;SDS011;68292;49.600;8.746;2023-03-12T07:48:57;4.80;;;3.63;;
28547;SDS011;68292;49.600;8.746;2023-03-12T07:51:26;4.90;;;4.07;;
28547;SDS011;68292;49.600;8.746;2023-03-12T07:53:55;4.90;;;4.40;;
28547;SDS011;68292;49.600;8.746;2023-03-12T07:56:23;5.10;;;3.90;;
28547;SDS011;68292;49.600;8.746;2023-03-12T07:58:52;4.73;;;3.57;;
28547;SDS011;68292;49.600;8.746;2023-03-12T08:01:23;5.70;;;4.00;;
28547;SDS011;68292;49.600;8.746;2023-03-12T08:04:00;4.90;;;4.50;;
28547;SDS011;68292;49.600;8.746;2023-03-12T08:06:30;4.30;;;3.90;;
28547;SDS011;68292;49.600;8.746;2023-03-12T08:08:58;5.00;;;4.50;;
28547;SDS011;68292;49.600;8.746;2023-03-12T08:11:27;4.87;;;4.37;;
28547;SDS011;68292;49.600;8.746;2023-03-12T08:13:56;6.40;;;5.27;;
28547;SDS011;68292;49.600;8.746;2023-03-12T08:16:26;6.53;;;4.73;;
28547;SDS011;68292;49.600;8.746;2023-03-12T08:18:55;5.40;;;4.70;;
28547;SDS011;68292;49.600;8.746;2023-03-12T08:21:24;5.17;;;4.70;;
28547;SDS011;68292;49.600;8.746;2023-03-12T08:23:52;5.80;;;5.20;;
28547;SDS011;68292;49.600;8.746;2023-03-12T08:26:21;7.00;;;5.07;;
28547;SDS011;68292;49.600;8.746;2023-03-12T08:28:50;5.50;;;5.10;;
28547;SDS011;68292;49.600;8.746;2023-03-12T08:31:18;5.50;;;5.00;;
28547;SDS011;68292;49.600;8.746;2023-03-12T08:33:49;7.60;;;5.47;;
28547;SDS011;68292;49.600;8.746;2023-03-12T08:36:18;7.07;;;5.53;;
28547;SDS011;68292;49.600;8.746;2023-03-12T08:38:48;6.20;;;5.23;;
28547;SDS011;68292;49.600;8.746;2023-03-12T08:41:18;7.27;;;5.53;;
28547;SDS011;68292;49.600;8.746;2023-03-12T08:43:47;5.93;;;5.13;;
28547;SDS011;68292;49.600;8.746;2023-03-12T08:46:16;7.27;;;5.30;;
28547;SDS011;68292;49.600;8.746;2023-03-12T08:48:45;9.23;;;5.93;;
28547;SDS011;68292;49.600;8.746;2023-03-12T08:51:15;7.77;;;5.97;;
28547;SDS011;68292;49.600;8.746;2023-03-12T08:53:44;6.77;;;5.97;;
28547;SDS011;68292;49.600;8.746;2023-03-12T08:56:13;8.57;;;6.47;;
28547;SDS011;68292;49.600;8.746;2023-03-12T08:58:42;6.80;;;5.90;;
28547;SDS011;68292;49.600;8.746;2023-03-12T09:01:11;7.30;;;6.33;;
28547;SDS011;68292;49.600;8.746;2023-03-12T09:03:40;7.33;;;6.60;;
28547;SDS011;68292;49.600;8.746;2023-03-12T09:06:10;7.63;;;6.87;;
28547;SDS011;68292;49.600;8.746;2023-03-12T09:08:44;9.40;;;6.90;;
28547;SDS011;68292;49.600;8.746;2023-03-12T09:11:14;7.30;;;6.60;;
28547;SDS011;68292;49.600;8.746;2023-03-12T09:13:43;6.97;;;6.37;;
28547;SDS011;68292;49.600;8.746;2023-03-12T09:16:32;6.97;;;5.70;;
28547;SDS011;68292;49.600;8.746;2023-03-12T09:19:01;6.37;;;4.90;;
28547;SDS011;68292;49.600;8.746;2023-03-12T09:21:30;5.13;;;4.63;;
28547;SDS011;68292;49.600;8.746;2023-03-12T09:24:00;6.00;;;4.80;;
28547;SDS011;68292;49.600;8.746;2023-03-12T09:26:28;4.43;;;4.00;;
28547;SDS011;68292;49.600;8.746;2023-03-12T09:28:57;5.17;;;4.67;;
28547;SDS011;68292;49.600;8.746;2023-03-12T09:31:26;4.17;;;3.87;;
28547;SDS011;68292;49.600;8.746;2023-03-12T09:33:55;4.90;;;4.40;;
28547;SDS011;68292;49.600;8.746;2023-03-12T09:36:23;5.93;;;4.07;;
28547;SDS011;68292;49.600;8.746;2023-03-12T09:38:52;5.00;;;4.50;;
28547;SDS011;68292;49.600;8.746;2023-03-12T09:41:24;5.50;;;4.60;;
28547;SDS011;68292;49.600;8.746;2023-03-12T09:43:56;4.63;;;4.33;;
28547;SDS011;68292;49.600;8.746;2023-03-12T09:46:32;4.77;;;4.37;;
28547;SDS011;68292;49.600;8.746;2023-03-12T09:49:08;4.60;;;4.20;;
28547;SDS011;68292;49.600;8.746;2023-03-12T09:51:44;4.67;;;4.27;;
28547;SDS011;68292;49.600;8.746;2023-03-12T09:54:20;5.00;;;4.50;;
28547;SDS011;68292;49.600;8.746;2023-03-12T09:56:59;4.67;;;4.27;;
28547;SDS011;68292;49.600;8.746;2023-03-12T09:59:35;4.27;;;3.90;;
28547;SDS011;68292;49.600;8.746;2023-03-12T10:02:05;4.63;;;4.00;;
28547;SDS011;68292;49.600;8.746;2023-03-12T10:05:04;4.67;;;3.83;;
28547;SDS011;68292;49.600;8.746;2023-03-12T10:07:37;5.50;;;5.00;;
28547;SDS011;68292;49.600;8.746;2023-03-12T10:10:15;6.60;;;6.00;;
28547;SDS011;68292;49.600;8.746;2023-03-12T10:13:09;10.50;;;8.90;;
28547;SDS011;68292;49.600;8.746;2023-03-12T10:16:01;10.70;;;8.13;;
28547;SDS011;68292;49.600;8.746;2023-03-12T10:18:47;7.43;;;6.47;;
28547;SDS011;68292;49.600;8.746;2023-03-12T10:21:31;6.80;;;6.20;;
28547;SDS011;68292;49.600;8.746;2023-03-12T10:27:00;6.43;;;5.53;;
28547;SDS011;68292;49.600;8.746;2023-03-12T10:29:31;7.67;;;6.03;;
28547;SDS011;68292;49.600;8.746;2023-03-12T10:32:04;5.63;;;5.07;;
28547;SDS011;68292;49.600;8.746;2023-03-12T10:34:43;5.27;;;4.77;;
28547;SDS011;68292;49.600;8.746;2023-03-12T10:37:16;5.20;;;4.80;;
28547;SDS011;68292;49.600;8.746;2023-03-12T10:39:50;5.70;;;5.17;;
28547;SDS011;68292;49.600;8.746;2023-03-12T10:42:21;5.30;;;4.77;;
28547;SDS011;68292;49.600;8.746;2023-03-12T10:44:55;5.93;;;5.00;;
28547;SDS011;68292;49.600;8.746;2023-03-12T10:47:33;4.87;;;4.37;;
28547;SDS011;68292;49.600;8.746;2023-03-12T10:50:14;5.10;;;4.70;;
28547;SDS011;68292;49.600;8.746;2023-03-12T10:52:46;6.33;;;4.60;;
28547;SDS011;68292;49.600;8.746;2023-03-12T10:55:20;4.80;;;4.30;;
28547;SDS011;68292;49.600;8.746;2023-03-12T10:57:52;4.83;;;4.33;;
28547;SDS011;68292;49.600;8.746;2023-03-12T11:00:23;4.40;;;4.00;;
28547;SDS011;68292;49.600;8.746;2023-03-12T11:02:56;5.03;;;4.37;;
28547;SDS011;68292;49.600;8.746;2023-03-12T11:05:29;5.47;;;4.77;;
28547;SDS011;68292;49.600;8.746;2023-03-12T11:08:01;5.90;;;4.63;;
28547;SDS011;68292;49.600;8.746;2023-03-12T11:10:40;5.30;;;4.87;;
28547;SDS011;68292;49.600;8.746;2023-03-12T11:13:21;5.53;;;4.97;;
28547;SDS011;68292;49.600;8.746;2023-03-12T11:16:02;6.23;;;5.63;;
28547;SDS011;68292;49.600;8.746;2023-03-12T11:18:53;5.23;;;4.73;;
28547;SDS011;68292;49.600;8.746;2023-03-12T11:21:23;4.93;;;4.50;;
28547;SDS011;68292;49.600;8.746;2023-03-12T11:24:06;5.20;;;4.80;;
28547;SDS011;68292;49.600;8.746;2023-03-12T11:26:38;5.87;;;4.90;;
28547;SDS011;68292;49.600;8.746;2023-03-12T11:29:20;6.37;;;4.87;;
28547;SDS011;68292;49.600;8.746;2023-03-12T11:32:01;5.73;;;4.93;;
28547;SDS011;68292;49.600;8.746;2023-03-12T11:34:34;5.17;;;4.67;;
28547;SDS011;68292;49.600;8.746;2023-03-12T11:37:09;5.83;;;5.33;;
28547;SDS011;68292;49.600;8.746;2023-03-12T11:39:46;10.60;;;9.67;;
28547;SDS011;68292;49.600;8.746;2023-03-12T11:42:38;15.03;;;13.67;;
28547;SDS011;68292;49.600;8.746;2023-03-12T11:46:05;12.40;;;11.40;;
28547;SDS011;68292;49.600;8.746;2023-03-12T11:48:49;14.80;;;13.60;;
28547;SDS011;68292;49.600;8.746;2023-03-12T11:51:36;10.27;;;9.27;;
28547;SDS011;68292;49.600;8.746;2023-03-12T11:54:18;7.33;;;6.70;;
28547;SDS011;68292;49.600;8.746;2023-03-12T11:57:14;6.67;;;6.03;;
28547;SDS011;68292;49.600;8.746;2023-03-12T11:59:58;6.93;;;6.27;;
28547;SDS011;68292;49.600;8.746;2023-03-12T12:05:37;6.70;;;5.83;;
28547;SDS011;68292;49.600;8.746;2023-03-12T12:08:18;6.27;;;5.67;;
28547;SDS011;68292;49.600;8.746;2023-03-12T12:11:06;6.30;;;5.70;;
28547;SDS011;68292;49.600;8.746;2023-03-12T12:13:46;6.10;;;5.50;;
28547;SDS011;68292;49.600;8.746;2023-03-12T12:16:34;6.33;;;5.63;;
28547;SDS011;68292;49.600;8.746;2023-03-12T12:19:27;5.93;;;5.43;;
28547;SDS011;68292;49.600;8.746;2023-03-12T12:22:16;6.50;;;5.90;;
28547;SDS011;68292;49.600;8.746;2023-03-12T12:25:11;6.07;;;5.47;;
28547;SDS011;68292;49.600;8.746;2023-03-12T12:27:55;7.70;;;5.70;;
28547;SDS011;68292;49.600;8.746;2023-03-12T12:31:01;6.47;;;5.97;;
28547;SDS011;68292;49.600;8.746;2023-03-12T12:33:46;6.17;;;5.57;;
28547;SDS011;68292;49.600;8.746;2023-03-12T12:36:29;6.77;;;5.40;;
28547;SDS011;68292;49.600;8.746;2023-03-12T12:39:03;5.97;;;5.43;;
28547;SDS011;68292;49.600;8.746;2023-03-12T12:41:41;5.20;;;4.70;;
28547;SDS011;68292;49.600;8.746;2023-03-12T12:44:17;6.13;;;5.60;;
28547;SDS011;68292;49.600;8.746;2023-03-12T12:46:51;5.53;;;5.03;;
28547;SDS011;68292;49.600;8.746;2023-03-12T12:49:28;7.13;;;5.13;;
28547;SDS011;68292;49.600;8.746;2023-03-12T12:52:04;5.23;;;4.63;;
28547;SDS011;68292;49.600;8.746;2023-03-12T12:54:37;6.70;;;5.80;;
28547;SDS011;68292;49.600;8.746;2023-03-12T12:57:19;5.20;;;4.70;;
28547;SDS011;68292;49.600;8.746;2023-03-12T12:59:57;5.37;;;4.87;;
28547;SDS011;68292;49.600;8.746;2023-03-12T13:02:43;5.27;;;4.77;;
28547;SDS011;68292;49.600;8.746;2023-03-12T13:05:18;5.77;;;5.17;;
28547;SDS011;68292;49.600;8.746;2023-03-12T13:07:50;7.27;;;6.57;;
28547;SDS011;68292;49.600;8.746;2023-03-12T13:10:42;9.93;;;7.57;;
28547;SDS011;68292;49.600;8.746;2023-03-12T13:13:28;13.37;;;8.10;;
28547;SDS011;68292;49.600;8.746;2023-03-12T13:19:04;7.67;;;6.37;;
28547;SDS011;68292;49.600;8.746;2023-03-12T13:21:51;8.53;;;5.57;;
28547;SDS011;68292;49.600;8.746;2023-03-12T13:24:33;5.73;;;5.13;;
28547;SDS011;68292;49.600;8.746;2023-03-12T13:27:13;5.90;;;5.23;;
28547;SDS011;68292;49.600;8.746;2023-03-12T13:29:47;5.53;;;5.03;;
28547;SDS011;68292;49.600;8.746;2023-03-12T13:32:35;5.63;;;5.00;;
28547;SDS011;68292;49.600;8.746;2023-03-12T13:35:32;5.43;;;4.63;;
28547;SDS011;68292;49.600;8.746;2023-03-12T13:38:05;5.27;;;4.80;;
28547;SDS011;68292;49.600;8.746;2023-03-12T13:43:41;4.57;;;4.17;;
28547;SDS011;68292;49.600;8.746;2023-03-12T13:49:17;8.03;;;5.23;;
28547;SDS011;68292;49.600;8.746;2023-03-12T13:51:54;5.13;;;4.63;;
28547;SDS011;68292;49.600;8.746;2023-03-12T13:54:38;6.23;;;4.67;;
28547;SDS011;68292;49.600;8.746;2023-03-12T13:57:11;4.83;;;4.33;;
28547;SDS011;68292;49.600;8.746;2023-03-12T13:59:54;6.83;;;4.63;;
28547;SDS011;68292;49.600;8.746;2023-03-12T14:02:25;8.60;;;5.57;;
28547;SDS011;68292;49.600;8.746;2023-03-12T14:05:03;5.97;;;5.47;;
28547;SDS011;68292;49.600;8.746;2023-03-12T14:07:43;8.73;;;7.27;;
28547;SDS011;68292;49.600;8.746;2023-03-12T14:10:29;7.53;;;6.40;;
28547;SDS011;68292;49.600;8.746;2023-03-12T14:13:10;5.80;;;5.07;;
28547;SDS011;68292;49.600;8.746;2023-03-12T14:15:57;6.03;;;5.00;;
28547;SDS011;68292;49.600;8.746;2023-03-12T14:18:33;8.57;;;6.03;;
28547;SDS011;68292;49.600;8.746;2023-03-12T14:21:06;6.30;;;4.80;;
28547;SDS011;68292;49.600;8.746;2023-03-12T14:23:38;6.23;;;4.73;;
28547;SDS011;68292;49.600;8.746;2023-03-12T14:26:14;7.00;;;4.50;;
28547;SDS011;68292;49.600;8.746;2023-03-12T14:28:48;5.47;;;4.13;;
28547;SDS011;68292;49.600;8.746;2023-03-12T14:31:27;8.53;;;3.90;;
28547;SDS011;68292;49.600;8.746;2023-03-12T14:33:57;6.87;;;4.13;;
28547;SDS011;68292;49.600;8.746;2023-03-12T14:36:34;6.13;;;4.27;;
28547;SDS011;68292;49.600;8.746;2023-03-12T14:39:09;5.37;;;3.83;;
28547;SDS011;68292;49.600;8.746;2023-03-12T14:41:47;9.17;;;4.27;;
28547;SDS011;68292;49.600;8.746;2023-03-12T14:44:23;8.13;;;3.93;;
28547;SDS011;68292;49.600;8.746;2023-03-12T14:46:56;5.77;;;4.33;;
28547;SDS011;68292;49.600;8.746;2023-03-12T14:49:28;8.40;;;4.40;;
28547;SDS011;68292;49.600;8.746;2023-03-12T14:51:58;5.50;;;4.13;;
28547;SDS011;68292;49.600;8.746;2023-03-12T14:54:26;6.93;;;4.23;;
28547;SDS011;68292;49.600;8.746;2023-03-12T14:56:56;9.07;;;4.43;;
28547;SDS011;68292;49.600;8.746;2023-03-12T14:59:26;7.10;;;4.27;;
28547;SDS011;68292;49.600;8.746;2023-03-12T15:01:59;6.90;;;4.53;;
28547;SDS011;68292;49.600;8.746;2023-03-12T15:04:34;6.87;;;4.10;;
28547;SDS011;68292;49.600;8.746;2023-03-12T15:07:03;8.13;;;4.40;;
28547;SDS011;68292;49.600;8.746;2023-03-12T15:09:36;8.10;;;3.67;;
28547;SDS011;68292;49.600;8.746;2023-03-12T15:12:16;5.40;;;2.60;;
28547;SDS011;68292;49.600;8.746;2023-03-12T15:14:48;5.40;;;3.07;;
28547;SDS011;68292;49.600;8.746;2023-03-12T15:17:22;6.23;;;2.90;;
28547;SDS011;68292;49.600;8.746;2023-03-12T15:19:55;7.17;;;3.43;;
28547;SDS011;68292;49.600;8.746;2023-03-12T15:22:25;7.40;;;3.30;;
28547;SDS011;68292;49.600;8.746;2023-03-12T15:24:54;5.60;;;2.70;;
28547;SDS011;68292;49.600;8.746;2023-03-12T15:27:32;8.50;;;3.40;;
28547;SDS011;68292;49.600;8.746;2023-03-12T15:30:01;7.47;;;3.07;;
28547;SDS011;68292;49.600;8.746;2023-03-12T15:33:08;6.00;;;3.13;;
28547;SDS011;68292;49.600;8.746;2023-03-12T15:35:40;7.63;;;4.00;;
28547;SDS011;68292;49.600;8.746;2023-03-12T15:38:14;6.00;;;2.80;;